Time;durP1;ratioP1;P1;durP2;ratioP2;P2;SDS_P1;SDS_P2;PMS_P1;PMS_P2;Temp;Humidity;BMP_temperature;BMP_pressure;BME280_temperature;BME280_humidity;BME280_pressure;Samples;Min_cycle;Max_cycle;Signal;HPM_P1;HPM_P2
2021/12/17 00:00:03;;;;;;;21.47;15.03;;;2.00;99.90;;;;;;5051493;28;20309;-76
2021/12/17 00:03:08;;;;;;;20.70;14.60;;;2.00;99.90;;;;;;5051666;28;20845;-76
2021/12/17 00:05:17;;;;;;;24.17;15.37;;;2.00;99.90;;;;;;5051650;28;20538;-76
2021/12/17 00:07:43;;;;;;;21.23;14.70;;;1.80;99.90;;;;;;5051786;28;20798;-76
2021/12/17 00:10:17;;;;;;;24.33;15.23;;;1.80;99.90;;;;;;5051384;28;20258;-76
2021/12/17 00:12:43;;;;;;;21.83;14.80;;;1.90;99.90;;;;;;5051353;28;20640;-75
2021/12/17 00:15:10;;;;;;;21.50;15.13;;;1.90;99.90;;;;;;5051672;28;20266;-76
2021/12/17 00:17:39;;;;;;;22.53;14.77;;;1.70;99.90;;;;;;5050348;28;20202;-76
2021/12/17 00:52:45;;;;;;;23.57;15.20;;;2.00;99.90;;;;;;5055184;28;20175;-76
2021/12/17 00:55:11;;;;;;;23.73;15.53;;;2.10;99.90;;;;;;5055000;28;20176;-76
2021/12/17 00:57:41;;;;;;;24.00;15.37;;;2.20;99.90;;;;;;5054993;28;20182;-77
2021/12/17 01:00:14;;;;;;;22.90;14.90;;;2.30;99.90;;;;;;5053233;28;20337;-77
2021/12/17 01:02:41;;;;;;;24.23;15.50;;;2.30;99.90;;;;;;5054976;28;20742;-80
2021/12/17 01:05:12;;;;;;;21.20;14.80;;;2.30;99.90;;;;;;5055169;28;20171;-77
2021/12/17 01:07:40;;;;;;;22.23;15.47;;;2.40;99.90;;;;;;5055036;28;20320;-76
2021/12/17 01:10:11;;;;;;;24.13;16.30;;;2.50;99.90;;;;;;5054624;28;20202;-77
2021/12/17 01:12:36;;;;;;;22.87;14.67;;;2.40;99.90;;;;;;5054790;28;20171;-80
2021/12/17 01:15:05;;;;;;;20.10;13.23;;;2.50;99.90;;;;;;5055578;28;20263;-76
2021/12/17 01:17:33;;;;;;;20.53;13.70;;;2.30;99.90;;;;;;5055031;28;20171;-76
2021/12/17 01:23:11;;;;;;;19.03;13.93;;;2.20;99.90;;;;;;5054474;28;20620;-76
2021/12/17 01:35:20;;;;;;;19.70;13.93;;;2.30;99.90;;;;;;5054675;28;20182;-76
2021/12/17 01:37:02;;;;;;;22.67;15.17;;;2.40;99.90;;;;;;5054284;28;20659;-76
2021/12/17 01:40:34;;;;;;;22.77;15.67;;;2.50;99.90;;;;;;5053901;28;20493;-78
2021/12/17 01:42:16;;;;;;;23.87;15.37;;;2.70;99.90;;;;;;5054271;28;20221;-77
2021/12/17 01:44:42;;;;;;;24.60;16.80;;;2.70;99.90;;;;;;5054359;28;20183;-77
2021/12/17 01:47:11;;;;;;;22.83;16.50;;;2.80;99.90;;;;;;5054320;28;20536;-75
2021/12/17 02:00:22;;;;;;;21.87;15.03;;;2.60;99.90;;;;;;5052784;28;20214;-76
2021/12/17 02:02:55;;;;;;;21.07;15.30;;;2.70;99.90;;;;;;5053210;28;20274;-75
2021/12/17 02:05:21;;;;;;;25.10;15.83;;;2.70;99.90;;;;;;5053368;28;20644;-75
2021/12/17 02:07:49;;;;;;;23.27;15.00;;;2.70;99.90;;;;;;5053289;28;20213;-75
2021/12/17 02:19:22;;;;;;;21.47;14.77;;;2.70;99.90;;;;;;5053304;28;20166;-75
2021/12/17 02:21:42;;;;;;;20.97;14.47;;;2.80;99.90;;;;;;5052687;28;20712;-76
2021/12/17 02:32:04;;;;;;;20.50;14.93;;;3.10;99.90;;;;;;5052926;28;20167;-76
2021/12/17 02:37:21;;;;;;;23.13;14.87;;;2.80;99.90;;;;;;5053522;28;20206;-76
2021/12/17 02:47:38;;;;;;;22.60;14.73;;;2.80;99.90;;;;;;5052586;28;20178;-76
2021/12/17 02:50:04;;;;;;;23.00;15.87;;;2.90;99.90;;;;;;5052032;28;20579;-75
2021/12/17 02:52:31;;;;;;;24.07;15.53;;;2.90;99.90;;;;;;5053766;28;20171;-75
2021/12/17 02:54:58;;;;;;;22.43;15.30;;;2.80;99.90;;;;;;5052504;28;20190;-74
2021/12/17 02:57:25;;;;;;;20.73;14.23;;;2.80;99.90;;;;;;5052470;28;20179;-76
2021/12/17 02:59:51;;;;;;;19.07;14.80;;;2.80;99.90;;;;;;5051034;28;20297;-76
2021/12/17 03:02:19;;;;;;;22.73;15.33;;;2.90;99.90;;;;;;5051888;28;20190;-75
2021/12/17 03:04:44;;;;;;;22.50;15.30;;;3.00;99.90;;;;;;5052839;28;20171;-76
2021/12/17 03:07:14;;;;;;;18.93;13.70;;;2.70;99.90;;;;;;5052398;28;20174;-75
2021/12/17 03:12:14;;;;;;;20.47;15.53;;;3.10;99.90;;;;;;5051902;28;20640;-75
2021/12/17 03:14:48;;;;;;;23.93;15.70;;;3.10;99.90;;;;;;5051781;28;20190;-75
2021/12/17 03:17:21;;;;;;;23.40;15.63;;;3.00;99.90;;;;;;5052437;28;20247;-75
2021/12/17 03:25:20;;;;;;;23.33;15.67;;;3.10;99.90;;;;;;5052021;28;20268;-76
2021/12/17 03:27:45;;;;;;;21.63;15.50;;;3.00;99.90;;;;;;5052189;28;20635;-75
2021/12/17 03:30:11;;;;;;;22.03;15.73;;;3.00;99.90;;;;;;5052269;28;20265;-75
2021/12/17 03:32:37;;;;;;;25.03;15.93;;;2.90;99.90;;;;;;5053988;28;20174;-76
2021/12/17 03:35:03;;;;;;;22.80;16.20;;;3.00;99.90;;;;;;5052756;28;20183;-76
2021/12/17 03:37:28;;;;;;;22.67;16.03;;;3.10;99.90;;;;;;5051911;28;20175;-75
2021/12/17 03:39:54;;;;;;;23.10;15.50;;;3.10;99.90;;;;;;5051377;28;20310;-76
2021/12/17 03:42:20;;;;;;;23.27;16.17;;;3.10;99.90;;;;;;5051654;28;20262;-76
2021/12/17 03:44:45;;;;;;;20.23;15.07;;;3.10;99.90;;;;;;5052046;28;20254;-76
2021/12/17 03:47:11;;;;;;;25.93;16.80;;;3.20;99.90;;;;;;5052506;28;20354;-76
2021/12/17 03:49:40;;;;;;;21.23;15.73;;;3.20;99.90;;;;;;5051202;28;20207;-76
2021/12/17 03:52:06;;;;;;;21.83;15.40;;;3.30;99.90;;;;;;5051632;28;20187;-76
2021/12/17 03:54:36;;;;;;;22.50;16.27;;;3.30;99.90;;;;;;5051606;28;20175;-75
2021/12/17 03:57:05;;;;;;;21.10;15.80;;;3.20;99.90;;;;;;5051504;28;21016;-76
2021/12/17 03:59:30;;;;;;;23.23;15.23;;;3.10;99.90;;;;;;5052118;28;20215;-76
2021/12/17 04:01:56;;;;;;;23.43;15.93;;;3.20;99.90;;;;;;5051907;28;20193;-75
2021/12/17 04:04:21;;;;;;;21.43;16.00;;;3.30;99.90;;;;;;5051448;28;20174;-76
2021/12/17 04:06:47;;;;;;;22.57;15.27;;;3.30;99.90;;;;;;5050117;28;20175;-74
2021/12/17 04:09:13;;;;;;;26.83;15.50;;;3.40;99.90;;;;;;5050895;28;20263;-76
2021/12/17 04:11:38;;;;;;;23.37;15.67;;;3.40;99.90;;;;;;5052523;28;20260;-76
2021/12/17 04:14:04;;;;;;;22.63;15.80;;;3.30;99.90;;;;;;5056050;28;20636;-78
2021/12/17 04:16:32;;;;;;;23.67;16.00;;;3.40;99.90;;;;;;5055713;28;20178;-81
2021/12/17 04:18:59;;;;;;;24.63;16.50;;;3.50;99.90;;;;;;5055461;28;20211;-77
2021/12/17 04:21:25;;;;;;;23.73;16.17;;;3.60;99.90;;;;;;5055063;28;20609;-78
2021/12/17 04:23:53;;;;;;;21.77;14.97;;;3.50;99.90;;;;;;5055637;28;20179;-79
2021/12/17 04:26:20;;;;;;;20.27;15.23;;;3.50;99.90;;;;;;5056804;28;20183;-77
2021/12/17 04:28:49;;;;;;;23.33;15.57;;;3.40;99.90;;;;;;5055679;28;20175;-76
2021/12/17 04:31:17;;;;;;;22.37;16.40;;;3.40;99.90;;;;;;5054627;28;20226;-76
2021/12/17 04:33:43;;;;;;;22.67;15.97;;;3.40;99.90;;;;;;5055084;28;20175;-76
2021/12/17 04:36:12;;;;;;;21.03;14.77;;;3.60;99.90;;;;;;5056579;28;20179;-75
2021/12/17 04:38:37;;;;;;;17.83;13.50;;;4.00;99.90;;;;;;5056247;28;20178;-75
2021/12/17 04:41:37;;;;;;;17.17;12.77;;;4.20;99.90;;;;;;5055395;28;20211;-76
2021/12/17 04:46:36;;;;;;;21.13;14.77;;;3.90;99.90;;;;;;5055008;28;20266;-75
2021/12/17 04:57:28;;;;;;;21.53;13.80;;;3.80;99.90;;;;;;5054797;28;20643;-75
2021/12/17 04:59:58;;;;;;;20.07;14.60;;;3.80;99.90;;;;;;5054182;28;20221;-76
2021/12/17 05:02:24;;;;;;;18.73;13.03;;;3.80;99.90;;;;;;5054507;28;20210;-76
2021/12/17 05:04:50;;;;;;;22.70;14.50;;;3.90;99.90;;;;;;5054517;28;20647;-76
2021/12/17 05:07:16;;;;;;;20.80;13.93;;;3.90;99.90;;;;;;5054594;28;20233;-76
2021/12/17 05:09:53;;;;;;;18.57;13.37;;;3.80;99.90;;;;;;5053980;28;20171;-74
2021/12/17 05:23:07;;;;;;;20.00;14.67;;;3.80;99.90;;;;;;5050487;28;20175;-76
2021/12/17 05:25:32;;;;;;;17.23;13.17;;;3.90;99.90;;;;;;5054265;28;20178;-74
2021/12/17 05:28:01;;;;;;;20.13;13.73;;;4.10;99.90;;;;;;5053992;28;20283;-72
2021/12/17 05:30:31;;;;;;;17.20;12.80;;;4.10;99.90;;;;;;5053343;28;20730;-74
2021/12/17 05:32:57;;;;;;;20.93;14.93;;;4.20;99.90;;;;;;5053762;28;20194;-74
2021/12/17 05:35:23;;;;;;;21.50;15.93;;;4.10;99.90;;;;;;5054153;28;20193;-74
2021/12/17 05:37:49;;;;;;;41.53;37.03;;;4.00;99.90;;;;;;5053807;28;20294;-74
2021/12/17 05:40:15;;;;;;;42.40;37.97;;;4.00;99.90;;;;;;5053159;28;20219;-74
2021/12/17 05:42:42;;;;;;;20.77;15.63;;;4.00;99.90;;;;;;5053762;28;20175;-74
2021/12/17 05:45:21;;;;;;;19.03;15.33;;;4.00;99.90;;;;;;5053970;28;20209;-74
2021/12/17 05:47:48;;;;;;;21.17;16.13;;;3.90;99.90;;;;;;5053763;28;20182;-73
2021/12/17 05:50:14;;;;;;;19.53;14.30;;;3.80;99.90;;;;;;5053308;28;20203;-74
2021/12/17 05:52:40;;;;;;;20.90;13.90;;;4.10;99.90;;;;;;5053364;28;20232;-74
2021/12/17 05:55:06;;;;;;;20.87;14.27;;;4.20;99.90;;;;;;5053579;28;20179;-74
2021/12/17 05:57:32;;;;;;;19.03;15.13;;;4.20;99.90;;;;;;5053476;28;20533;-75
2021/12/17 05:59:57;;;;;;;20.70;14.03;;;4.10;99.90;;;;;;5052778;28;20210;-73
2021/12/17 06:02:23;;;;;;;18.93;13.47;;;4.00;99.90;;;;;;5053503;28;20183;-73
2021/12/17 06:04:48;;;;;;;18.27;13.43;;;4.00;99.90;;;;;;5053474;28;20274;-74
2021/12/17 06:07:24;;;;;;;19.53;14.00;;;4.10;99.90;;;;;;5053374;28;20175;-74
2021/12/17 06:09:51;;;;;;;18.00;14.10;;;4.10;99.90;;;;;;5052771;28;20210;-75
2021/12/17 06:12:17;;;;;;;20.43;13.20;;;4.00;99.90;;;;;;5051815;28;20171;-74
2021/12/17 06:14:42;;;;;;;18.50;13.47;;;3.90;99.90;;;;;;5053381;28;20198;-74
2021/12/17 06:17:08;;;;;;;18.43;12.90;;;4.00;99.90;;;;;;5053213;28;20175;-73
2021/12/17 06:19:33;;;;;;;18.93;12.80;;;3.90;99.90;;;;;;5052687;28;20211;-74
2021/12/17 06:21:59;;;;;;;21.70;14.53;;;4.00;99.90;;;;;;5053109;28;20175;-74
2021/12/17 06:24:25;;;;;;;20.93;14.03;;;3.90;99.90;;;;;;5053604;28;20250;-74
2021/12/17 06:26:51;;;;;;;20.53;14.23;;;3.80;99.90;;;;;;5052910;28;20202;-73
2021/12/17 06:29:16;;;;;;;18.03;13.53;;;3.80;99.90;;;;;;5052416;28;20175;-74
2021/12/17 06:31:42;;;;;;;18.50;13.70;;;4.10;99.90;;;;;;5052727;28;20274;-74
2021/12/17 06:34:08;;;;;;;16.67;12.97;;;4.20;99.90;;;;;;5052959;28;20201;-73
2021/12/17 06:36:33;;;;;;;19.33;14.10;;;4.40;99.90;;;;;;5052918;28;20639;-74
2021/12/17 06:38:59;;;;;;;18.40;13.93;;;4.40;99.90;;;;;;5052481;28;20319;-74
2021/12/17 06:41:25;;;;;;;19.47;13.27;;;4.50;99.90;;;;;;5052115;28;20199;-74
2021/12/17 06:43:50;;;;;;;17.43;13.30;;;4.50;99.90;;;;;;5052460;28;20175;-74
2021/12/17 06:48:57;;;;;;;17.17;11.93;;;4.70;99.90;;;;;;5052764;28;20542;-74
2021/12/17 06:59:45;;;;;;;18.30;12.10;;;4.70;99.90;;;;;;5051746;28;20309;-74
2021/12/17 07:30:55;;;;;;;13.40;10.33;;;4.80;99.90;;;;;;5051771;28;20228;-75
2021/12/17 07:35:43;;;;;;;13.97;10.70;;;5.10;99.90;;;;;;5051947;28;20182;-76
2021/12/17 07:39:57;;;;;;;13.37;9.07;;;6.40;1.00;;;;;;5051063;28;20238;-75
2021/12/17 07:42:23;;;;;;;11.50;8.70;;;6.50;1.00;;;;;;5051857;28;20171;-75
2021/12/17 07:44:49;;;;;;;12.17;8.77;;;6.50;1.00;;;;;;5052356;28;20198;-76
2021/12/17 07:47:14;;;;;;;9.53;7.30;;;6.80;1.00;;;;;;5051538;28;20210;-76
2021/12/17 07:49:40;;;;;;;8.83;7.33;;;7.50;99.90;;;;;;5051045;28;20240;-76
2021/12/17 07:52:06;;;;;;;9.53;7.80;;;8.40;99.90;;;;;;5051504;28;20239;-76
2021/12/17 07:54:31;;;;;;;9.10;7.13;;;9.10;1.00;;;;;;5053996;28;20232;-76
2021/12/17 07:56:57;;;;;;;7.80;6.73;;;9.60;99.90;;;;;;5051490;28;20167;-79
2021/12/17 07:59:22;;;;;;;8.70;6.23;;;10.10;1.00;;;;;;5050706;28;20211;-75
2021/12/17 08:01:48;;;;;;;8.33;7.07;;;10.60;99.90;;;;;;5051656;28;20278;-76
2021/12/17 08:04:13;;;;;;;8.47;7.13;;;10.50;99.90;;;;;;5051757;28;20582;-75
2021/12/17 08:06:39;;;;;;;10.13;7.77;;;10.30;99.90;;;;;;5051125;28;20187;-75
2021/12/17 08:09:05;;;;;;;10.07;7.90;;;10.70;99.90;;;;;;5056609;28;20179;-73
2021/12/17 08:11:37;;;;;;;12.47;9.20;;;10.90;23.00;;;;;;5050860;28;20702;-75
2021/12/17 08:14:06;;;;;;;9.90;8.03;;;10.70;21.60;;;;;;5056359;28;20594;-74
2021/12/17 08:16:43;;;;;;;10.30;8.30;;;11.00;1.00;;;;;;5051474;28;20186;-73
2021/12/17 08:32:01;;;;;;;7.53;6.80;;;12.40;1.00;;;;;;5061834;28;20170;-75
2021/12/17 08:34:27;;;;;;;7.00;6.40;;;12.60;1.00;;;;;;5060532;28;20172;-76
2021/12/17 08:36:53;;;;;;;7.00;6.30;;;12.60;1.00;;;;;;5059275;28;20177;-75
2021/12/17 08:39:19;;;;;;;5.77;5.27;;;12.60;1.00;;;;;;5058923;28;20195;-74
2021/12/17 08:41:49;;;;;;;6.17;5.57;;;12.40;1.00;;;;;;5051359;28;20198;-74
2021/12/17 08:44:15;;;;;;;6.33;5.73;;;12.50;1.00;;;;;;5051733;28;20183;-75
2021/12/17 08:46:41;;;;;;;5.77;5.17;;;13.00;1.00;;;;;;5050775;28;20548;-75
2021/12/17 08:49:07;;;;;;;5.87;5.27;;;12.60;1.00;;;;;;5051008;28;20266;-74
2021/12/17 08:51:33;;;;;;;6.20;5.60;;;12.40;1.00;;;;;;5050577;28;20676;-74
2021/12/17 08:53:59;;;;;;;6.47;5.60;;;11.30;1.00;;;;;;5051191;28;20175;-73
2021/12/17 08:56:35;;;;;;;7.53;6.53;;;10.60;1.00;;;;;;5051125;28;20182;-73
2021/12/17 08:59:04;;;;;;;7.20;6.07;;;11.00;1.00;;;;;;5052490;28;20903;-74
2021/12/17 09:01:30;;;;;;;6.50;5.90;;;12.20;1.00;;;;;;5046180;28;20214;-74
2021/12/17 09:03:56;;;;;;;6.40;5.80;;;12.10;1.00;;;;;;5044038;28;20183;-75
2021/12/17 09:06:26;;;;;;;6.90;6.07;;;12.10;1.00;;;;;;5045892;28;20187;-75
2021/12/17 09:08:55;;;;;;;5.93;5.33;;;12.20;1.00;;;;;;5053491;28;20568;-76
2021/12/17 09:11:30;;;;;;;6.10;5.50;;;11.90;1.00;;;;;;5054424;28;20294;-74
2021/12/17 09:13:59;;;;;;;6.23;5.60;;;12.10;1.00;;;;;;5054292;28;20500;-75
2021/12/17 09:16:25;;;;;;;5.93;5.33;;;12.30;1.00;;;;;;5054249;28;20368;-74
2021/12/17 09:18:53;;;;;;;6.20;5.60;;;12.10;1.00;;;;;;5053826;28;20656;-73
2021/12/17 09:21:19;;;;;;;9.03;5.90;;;11.80;1.00;;;;;;5053169;28;20195;-74
2021/12/17 09:23:46;;;;;;;6.03;5.53;;;11.40;1.00;;;;;;5056622;28;20344;-75
2021/12/17 09:26:14;;;;;;;6.27;5.67;;;11.50;1.00;;;;;;5059112;28;20203;-74
2021/12/17 09:28:39;;;;;;;6.53;5.93;;;11.60;1.00;;;;;;5053306;28;20783;-75
2021/12/17 09:31:11;;;;;;;6.47;5.87;;;11.70;1.00;;;;;;5052456;28;20290;-77
2021/12/17 09:33:40;;;;;;;6.10;5.50;;;12.30;1.00;;;;;;5053867;28;20262;-74
2021/12/17 09:36:06;;;;;;;6.83;5.80;;;12.90;1.00;;;;;;5053655;28;20258;-75
2021/12/17 09:38:32;;;;;;;6.07;5.40;;;12.60;1.00;;;;;;5053509;28;20210;-75
2021/12/17 09:40:57;;;;;;;5.57;5.07;;;13.20;1.00;;;;;;5053069;28;20703;-75
2021/12/17 09:43:24;;;;;;;5.67;5.17;;;12.80;1.00;;;;;;5053447;28;20217;-75
2021/12/17 09:45:50;;;;;;;5.67;5.10;;;12.50;1.00;;;;;;5053229;28;20637;-76
2021/12/17 09:48:18;;;;;;;6.53;5.17;;;12.80;1.00;;;;;;5053575;28;20186;-74
2021/12/17 09:50:43;;;;;;;6.20;5.60;;;13.80;1.00;;;;;;5052485;28;20264;-73
2021/12/17 09:53:09;;;;;;;6.23;5.63;;;13.50;1.00;;;;;;5051339;28;20187;-74
2021/12/17 09:55:35;;;;;;;6.30;5.70;;;13.00;1.00;;;;;;5053686;28;20187;-74
2021/12/17 09:58:00;;;;;;;6.93;5.67;;;13.10;1.00;;;;;;5052744;28;20175;-74
2021/12/17 10:00:27;;;;;;;6.90;5.80;;;12.90;1.00;;;;;;5052549;28;20222;-75
2021/12/17 10:02:53;;;;;;;6.50;5.77;;;13.40;1.00;;;;;;5052764;28;20281;-75
2021/12/17 10:05:27;;;;;;;7.10;5.87;;;14.10;1.00;;;;;;5059988;28;20649;-75
2021/12/17 10:08:17;;;;;;;6.30;5.70;;;14.20;1.00;;;;;;5061669;28;20301;-75
2021/12/17 10:10:45;;;;;;;5.93;5.00;;;14.30;1.00;;;;;;5055353;28;20217;-75
2021/12/17 10:13:19;;;;;;;7.90;5.97;;;13.10;1.00;;;;;;5052471;28;20179;-75
2021/12/17 10:15:48;;;;;;;6.40;5.80;;;12.30;1.00;;;;;;5069566;28;20174;-74
2021/12/17 10:18:14;;;;;;;6.83;6.13;;;12.20;1.00;;;;;;5056754;28;20195;-75
2021/12/17 10:20:52;;;;;;;6.43;5.83;;;11.70;1.00;;;;;;5052545;28;20301;-75
2021/12/17 10:23:22;;;;;;;6.50;5.80;;;11.40;1.00;;;;;;5057911;28;20773;-74
2021/12/17 10:25:48;;;;;;;6.93;5.77;;;11.20;1.00;;;;;;5068137;28;20202;-76
2021/12/17 10:28:14;;;;;;;6.30;5.70;;;10.80;1.00;;;;;;5053186;28;20256;-73
2021/12/17 10:30:43;;;;;;;5.93;5.20;;;10.60;1.00;;;;;;5054103;28;20255;-75
2021/12/17 10:33:19;;;;;;;6.87;5.90;;;9.90;1.00;;;;;;5050691;28;20764;-75
2021/12/17 10:35:48;;;;;;;6.13;5.53;;;9.30;1.00;;;;;;5052535;28;20254;-74
2021/12/17 10:38:17;;;;;;;6.03;5.43;;;9.70;1.00;;;;;;5060580;28;20244;-75
2021/12/17 10:43:37;;;;;;;6.77;5.97;;;10.50;1.00;;;;;;5060697;28;20656;-76
2021/12/17 10:49:12;;;;;;;6.60;5.90;;;11.40;1.00;;;;;;5052970;28;20182;-76
2021/12/17 10:54:16;;;;;;;6.73;5.90;;;11.40;1.00;;;;;;5052067;28;20218;-76
2021/12/17 10:56:54;;;;;;;6.77;5.37;;;11.50;1.00;;;;;;5053595;28;20530;-75
2021/12/17 10:59:24;;;;;;;6.40;5.80;;;11.50;1.00;;;;;;5054065;28;20686;-74
2021/12/17 11:02:05;;;;;;;6.40;5.30;;;11.20;1.00;;;;;;5052942;28;20214;-73
2021/12/17 11:04:37;;;;;;;6.50;5.20;;;11.40;1.00;;;;;;5062094;28;20175;-74
2021/12/17 11:07:04;;;;;;;6.30;5.50;;;11.90;1.00;;;;;;5066467;28;20175;-74
2021/12/17 11:09:57;;;;;;;6.93;6.07;;;11.60;1.00;;;;;;5054291;28;20168;-74
2021/12/17 11:12:22;;;;;;;6.37;5.73;;;11.90;1.00;;;;;;5050786;28;20210;-76
2021/12/17 11:14:49;;;;;;;6.40;5.80;;;12.00;1.00;;;;;;5051506;28;20194;-74
2021/12/17 11:17:18;;;;;;;10.57;5.90;;;12.00;1.00;;;;;;5051983;28;20179;-74
2021/12/17 11:19:44;;;;;;;14.07;6.00;;;12.60;1.00;;;;;;5051718;28;20294;-75
2021/12/17 11:22:09;;;;;;;10.37;6.53;;;13.60;1.00;;;;;;5051846;28;20698;-76
2021/12/17 11:24:37;;;;;;;7.00;5.67;;;14.70;1.00;;;;;;5053375;28;20578;-76
2021/12/17 11:27:06;;;;;;;7.27;5.90;;;14.10;1.00;;;;;;5054109;28;20201;-76
2021/12/17 11:29:33;;;;;;;6.80;6.10;;;13.00;1.00;;;;;;5057190;28;20182;-74
2021/12/17 11:32:00;;;;;;;6.20;5.60;;;12.90;1.00;;;;;;5064634;28;20240;-75
2021/12/17 11:34:27;;;;;;;6.27;5.50;;;13.30;1.00;;;;;;5053582;28;20183;-74
2021/12/17 11:36:54;;;;;;;6.90;5.70;;;13.60;1.00;;;;;;5068163;28;20239;-75
2021/12/17 11:39:29;;;;;;;5.83;5.20;;;13.80;1.00;;;;;;5051050;28;20207;-74
2021/12/17 11:42:25;;;;;;;5.63;5.03;;;13.60;1.00;;;;;;5060784;28;20202;-76
2021/12/17 11:47:41;;;;;;;5.67;5.07;;;13.30;1.00;;;;;;5064010;28;20186;-76
2021/12/17 11:50:10;;;;;;;5.93;5.37;;;12.40;1.00;;;;;;5060250;28;20287;-76
2021/12/17 11:52:39;;;;;;;5.83;5.23;;;12.00;1.00;;;;;;5062985;28;20557;-75
2021/12/17 11:55:20;;;;;;;7.30;5.73;;;12.30;1.00;;;;;;5056636;28;20190;-75
2021/12/17 11:57:48;;;;;;;6.20;5.60;;;11.90;1.00;;;;;;5050781;28;20657;-75
2021/12/17 12:00:37;;;;;;;7.47;5.70;;;11.70;1.00;;;;;;5050612;28;20218;-76
2021/12/17 12:03:20;;;;;;;6.43;5.47;;;11.60;1.00;;;;;;5043264;28;20281;-75
2021/12/17 12:06:00;;;;;;;6.73;6.03;;;11.60;1.00;;;;;;5050979;28;20178;-75
2021/12/17 12:08:35;;;;;;;6.93;6.23;;;11.60;1.00;;;;;;5050751;28;20182;-76
2021/12/17 12:11:07;;;;;;;7.00;6.30;;;11.70;1.00;;;;;;5050574;28;20198;-75
2021/12/17 12:13:55;;;;;;;7.43;5.43;;;11.50;1.00;;;;;;5050776;28;20622;-75
2021/12/17 12:16:23;;;;;;;6.70;6.00;;;11.30;1.00;;;;;;5050842;28;20182;-76
2021/12/17 12:18:59;;;;;;;7.20;6.33;;;12.60;1.00;;;;;;5051087;28;20179;-76
2021/12/17 12:21:32;;;;;;;8.60;6.23;;;13.80;1.00;;;;;;5050509;28;20206;-75
2021/12/17 12:24:14;;;;;;;9.73;5.87;;;13.50;1.00;;;;;;5051698;28;20179;-77
2021/12/17 12:26:53;;;;;;;7.20;6.00;;;13.30;1.00;;;;;;5051311;28;20198;-76
2021/12/17 12:29:24;;;;;;;7.40;6.70;;;13.50;1.00;;;;;;5057506;28;20261;-78
2021/12/17 12:31:58;;;;;;;6.83;5.67;;;13.70;1.00;;;;;;5070376;28;20202;-77
2021/12/17 12:34:33;;;;;;;6.40;5.80;;;13.70;1.00;;;;;;5035904;28;20535;-76
2021/12/17 12:37:07;;;;;;;7.00;5.80;;;13.90;1.00;;;;;;5036481;28;20229;-77
2021/12/17 12:39:37;;;;;;;6.03;5.13;;;15.00;1.00;;;;;;5033968;28;20234;-77
2021/12/17 12:42:21;;;;;;;5.73;5.13;;;15.20;1.00;;;;;;5043401;28;20232;-77
2021/12/17 12:44:47;;;;;;;6.40;5.80;;;15.00;1.00;;;;;;5068896;28;20175;-76
2021/12/17 12:47:20;;;;;;;8.83;5.40;;;14.70;1.00;;;;;;5056562;28;20175;-76
2021/12/17 12:50:04;;;;;;;5.73;5.17;;;14.70;1.00;;;;;;5069134;28;20173;-76
2021/12/17 12:52:30;;;;;;;6.33;5.30;;;14.50;1.00;;;;;;5066934;28;20200;-76
2021/12/17 12:55:05;;;;;;;8.00;5.37;;;14.30;1.00;;;;;;5066340;28;20175;-76
2021/12/17 12:57:39;;;;;;;7.00;5.77;;;14.80;1.00;;;;;;5056828;28;20179;-76
2021/12/17 13:00:29;;;;;;;6.37;5.70;;;14.20;1.00;;;;;;5054744;28;20229;-75
2021/12/17 13:03:07;;;;;;;5.70;5.10;;;13.10;1.00;;;;;;5074362;28;20220;-74
2021/12/17 13:05:33;;;;;;;6.53;5.80;;;13.00;1.00;;;;;;5062492;28;20563;-76
2021/12/17 13:08:01;;;;;;;7.10;5.60;;;13.40;1.00;;;;;;5054828;28;20179;-76
2021/12/17 13:10:33;;;;;;;6.10;5.50;;;12.50;1.00;;;;;;5053153;28;20690;-76
2021/12/17 13:13:14;;;;;;;6.67;5.20;;;11.90;1.00;;;;;;5051572;28;20191;-76
2021/12/17 13:21:32;;;;;;;6.50;5.90;;;12.50;1.00;;;;;;5062086;28;20824;-75
2021/12/17 13:24:16;;;;;;;7.30;5.47;;;12.80;1.00;;;;;;5062447;28;20217;-76
2021/12/17 13:26:56;;;;;;;8.30;5.73;;;12.60;1.00;;;;;;5063336;28;20717;-76
2021/12/17 13:29:25;;;;;;;6.63;5.53;;;12.60;1.00;;;;;;5034359;28;20229;-75
2021/12/17 13:32:01;;;;;;;9.17;5.97;;;13.50;1.00;;;;;;5034657;28;20283;-76
2021/12/17 13:34:41;;;;;;;6.73;5.30;;;14.00;1.00;;;;;;5036722;28;20687;-76
2021/12/17 13:37:20;;;;;;;5.70;5.17;;;14.30;1.00;;;;;;5038708;28;20210;-75
2021/12/17 13:39:56;;;;;;;6.20;5.60;;;15.00;1.00;;;;;;5037467;28;20250;-75
2021/12/17 13:42:25;;;;;;;6.77;5.50;;;15.60;1.00;;;;;;5037415;28;20198;-77
2021/12/17 13:44:53;;;;;;;6.10;5.23;;;15.20;1.00;;;;;;5034359;28;20210;-77
2021/12/17 13:47:31;;;;;;;6.10;5.50;;;15.50;1.00;;;;;;5034314;28;20190;-76
2021/12/17 13:50:21;;;;;;;5.80;5.20;;;15.60;1.00;;;;;;5032321;28;20195;-77
2021/12/17 13:52:58;;;;;;;5.73;5.13;;;15.60;1.00;;;;;;5033506;28;20617;-76
2021/12/17 13:55:27;;;;;;;6.07;5.47;;;15.40;1.00;;;;;;5034359;28;20175;-76
2021/12/17 13:57:53;;;;;;;5.93;5.33;;;15.00;1.00;;;;;;5033223;28;20182;-76
2021/12/17 14:00:23;;;;;;;5.93;5.33;;;14.30;1.00;;;;;;5033027;28;20215;-76
2021/12/17 14:02:50;;;;;;;6.47;5.17;;;14.30;1.00;;;;;;5033502;28;20191;-76
2021/12/17 14:05:28;;;;;;;5.67;5.10;;;14.10;1.00;;;;;;5033292;28;20270;-76
2021/12/17 14:08:00;;;;;;;7.27;5.90;;;14.30;1.00;;;;;;5033604;28;20187;-75
2021/12/17 14:10:33;;;;;;;6.50;5.27;;;13.90;1.00;;;;;;5033419;28;20208;-76
2021/12/17 14:13:01;;;;;;;6.93;5.27;;;13.80;1.00;;;;;;5033591;28;20172;-76
2021/12/17 14:15:31;;;;;;;5.50;4.90;;;13.30;1.00;;;;;;5033468;28;20183;-76
2021/12/17 14:18:05;;;;;;;8.83;5.37;;;13.10;1.00;;;;;;5033231;28;20728;-76
2021/12/17 14:20:50;;;;;;;6.97;5.70;;;13.00;1.00;;;;;;5032765;28;20597;-76
2021/12/17 14:23:18;;;;;;;7.13;5.60;;;12.40;1.00;;;;;;5033389;28;20171;-76
2021/12/17 14:25:55;;;;;;;6.87;6.17;;;11.20;1.00;;;;;;5032882;28;20636;-76
2021/12/17 14:28:36;;;;;;;6.97;5.43;;;10.10;1.00;;;;;;5032753;28;20672;-76
2021/12/17 14:31:18;;;;;;;7.57;5.87;;;9.70;1.00;;;;;;5032442;28;20230;-78
2021/12/17 14:33:47;;;;;;;6.60;5.93;;;9.50;1.00;;;;;;5032818;28;20591;-78
2021/12/17 14:36:18;;;;;;;6.63;5.90;;;9.70;1.00;;;;;;5032960;28;20194;-77
2021/12/17 14:38:57;;;;;;;8.80;6.20;;;9.90;24.40;;;;;;5032814;28;20267;-76
2021/12/17 14:41:48;;;;;;;7.07;5.90;;;9.40;99.90;;;;;;5030922;28;20203;-76
2021/12/17 14:46:54;;;;;;;8.97;7.33;;;8.50;99.90;;;;;;5033220;28;20172;-77
2021/12/17 14:57:20;;;;;;;9.73;7.70;;;8.30;99.90;;;;;;5032333;28;20537;-76
2021/12/17 15:05:24;;;;;;;10.00;8.40;;;7.30;99.90;;;;;;5035466;28;20252;-78
2021/12/17 15:07:51;;;;;;;9.50;8.20;;;7.40;99.90;;;;;;5052121;28;20190;-77
2021/12/17 15:10:19;;;;;;;10.63;8.13;;;7.30;99.90;;;;;;5051504;28;20199;-77
2021/12/17 15:12:45;;;;;;;11.90;8.93;;;7.20;99.90;;;;;;5051424;28;20530;-77
2021/12/17 15:15:19;;;;;;;14.07;9.70;;;7.20;99.90;;;;;;5051310;28;20258;-76
2021/12/17 15:17:47;;;;;;;13.80;8.63;;;7.10;1.00;;;;;;5049189;28;20186;-76
2021/12/17 15:20:16;;;;;;;8.50;7.50;;;7.00;1.00;;;;;;5050593;28;20233;-76
2021/12/17 15:22:42;;;;;;;10.80;8.00;;;7.00;1.00;;;;;;5051318;28;20539;-75
2021/12/17 15:25:09;;;;;;;9.50;8.30;;;6.90;1.00;;;;;;5051582;28;20237;-76
2021/12/17 15:27:36;;;;;;;9.87;8.07;;;6.90;1.00;;;;;;5051426;28;20205;-77
2021/12/17 15:30:09;;;;;;;9.93;7.83;;;6.80;1.00;;;;;;5050911;28;20639;-76
2021/12/17 15:32:34;;;;;;;11.50;9.20;;;6.80;1.00;;;;;;5051851;28;20254;-75
2021/12/17 15:35:00;;;;;;;10.57;7.90;;;6.70;1.00;;;;;;5051691;28;20191;-75
2021/12/17 15:37:26;;;;;;;8.93;7.77;;;6.70;1.00;;;;;;5050557;28;20551;-76
2021/12/17 15:39:52;;;;;;;12.67;8.57;;;6.70;1.00;;;;;;5050057;28;20225;-77
2021/12/17 15:42:17;;;;;;;10.53;8.30;;;6.60;1.00;;;;;;5050887;28;20258;-75
2021/12/17 15:44:43;;;;;;;12.70;10.03;;;6.60;1.00;;;;;;5050198;28;20668;-75
2021/12/17 15:47:08;;;;;;;10.73;8.87;;;6.60;1.00;;;;;;5055163;28;20177;-77
2021/12/17 15:49:37;;;;;;;11.60;8.80;;;6.50;1.00;;;;;;5059326;28;20183;-76
2021/12/17 15:52:04;;;;;;;11.17;8.90;;;6.50;1.00;;;;;;5056925;28;20198;-77
2021/12/17 15:54:30;;;;;;;10.33;8.63;;;6.40;1.00;;;;;;5064740;28;20174;-75
2021/12/17 15:56:55;;;;;;;10.37;8.30;;;6.30;1.00;;;;;;5071225;28;20659;-77
2021/12/17 15:59:21;;;;;;;11.53;9.37;;;6.20;1.00;;;;;;5065839;28;20256;-77
2021/12/17 16:01:46;;;;;;;11.07;9.17;;;6.20;1.00;;;;;;5051104;28;20664;-77
2021/12/17 16:04:13;;;;;;;10.43;8.97;;;6.10;1.00;;;;;;5051113;28;20206;-77
2021/12/17 16:06:38;;;;;;;10.40;8.70;;;6.00;1.00;;;;;;5049620;28;20640;-77
2021/12/17 16:09:10;;;;;;;10.67;9.53;;;5.90;1.00;;;;;;5054691;28;20186;-76
2021/12/17 16:11:57;;;;;;;12.33;9.50;;;5.80;1.00;;;;;;5055526;28;20257;-77
2021/12/17 16:22:28;;;;;;;14.70;11.40;;;5.90;1.00;;;;;;5055100;28;20754;-77
2021/12/17 16:24:54;;;;;;;14.43;10.70;;;6.00;1.00;;;;;;5054818;28;20171;-77
2021/12/17 16:27:20;;;;;;;13.90;11.30;;;5.90;1.00;;;;;;5061954;28;20190;-77
2021/12/17 16:29:46;;;;;;;14.63;11.07;;;5.90;1.00;;;;;;5057471;28;20586;-77